createdAt,value
2023-08-15T17:57:08.634Z,6.88
2023-08-15T17:59:36.461Z,7.25
2023-08-15T18:02:04.906Z,7.13
2023-08-15T18:04:39.303Z,7.53
2023-08-15T18:07:07.140Z,8.27
2023-08-15T18:09:35.175Z,7.40
2023-08-15T18:12:11.450Z,6.90
2023-08-15T18:14:41.574Z,7.75
2023-08-15T18:17:09.667Z,7.15
2023-08-15T18:19:45.353Z,7.43
2023-08-15T18:22:14.852Z,7.75
2023-08-15T18:24:42.857Z,8.13
2023-08-15T18:27:20.812Z,8.60
2023-08-15T18:29:49.127Z,8.88
2023-08-15T18:32:16.985Z,9.13
2023-08-15T18:34:51.513Z,8.50
2023-08-15T18:37:19.413Z,8.50
2023-08-15T18:39:47.240Z,8.98
2023-08-15T18:42:23.807Z,9.90
2023-08-15T18:44:51.883Z,9.75
2023-08-15T18:47:19.781Z,9.98
2023-08-15T18:49:54.455Z,10.20
2023-08-15T18:52:22.501Z,9.57
2023-08-15T18:55:10.485Z,9.98
2023-08-15T18:57:39.651Z,10.02
2023-08-15T19:00:08.886Z,10.70
2023-08-15T19:02:43.845Z,11.40
2023-08-15T19:05:11.830Z,11.90
2023-08-15T19:07:39.922Z,11.23
2023-08-15T19:10:15.561Z,12.73
2023-08-15T19:12:44.927Z,11.80
2023-08-15T19:15:25.597Z,12.20
2023-08-15T19:17:53.545Z,12.65
2023-08-15T19:20:22.726Z,13.82
2023-08-15T19:22:57.465Z,12.63
2023-08-15T19:25:26.080Z,13.38
2023-08-15T19:27:55.348Z,13.45
2023-08-15T19:30:30.391Z,11.88
2023-08-15T19:32:59.481Z,13.00
2023-08-15T19:35:27.526Z,12.30
2023-08-15T19:38:02.516Z,13.38
2023-08-15T19:40:30.354Z,14.10
2023-08-15T19:42:59.537Z,13.35
2023-08-15T19:45:36.513Z,13.50
2023-08-15T19:48:05.285Z,13.88
2023-08-15T19:50:33.153Z,14.68
2023-08-15T19:53:07.483Z,14.43
2023-08-15T19:55:55.375Z,14.55
2023-08-15T19:58:31.389Z,14.15
2023-08-15T20:00:59.321Z,14.50
2023-08-15T20:03:27.136Z,15.30
2023-08-15T20:06:01.752Z,15.65
2023-08-15T20:08:29.559Z,15.05
2023-08-15T20:10:57.635Z,15.10
2023-08-15T20:13:33.689Z,14.27
2023-08-15T20:16:02.312Z,14.38
2023-08-15T20:18:30.095Z,14.75
2023-08-15T20:21:06.515Z,14.77
2023-08-15T20:23:34.528Z,14.25
2023-08-15T20:26:02.462Z,13.18
2023-08-15T20:28:38.508Z,12.73
2023-08-15T20:31:07.249Z,12.00
2023-08-15T20:33:35.080Z,11.05
2023-08-15T20:36:09.380Z,10.80
2023-08-15T20:38:37.396Z,10.13
2023-08-15T20:41:05.362Z,9.27
2023-08-15T20:43:41.476Z,9.10
2023-08-15T20:46:16.152Z,9.40
2023-08-15T20:48:50.404Z,9.43
2023-08-15T20:51:18.651Z,11.43
2023-08-15T20:53:46.463Z,11.32
2023-08-15T20:56:20.520Z,10.13
2023-08-15T20:58:49.702Z,8.75
2023-08-15T21:01:17.634Z,8.90
2023-08-15T21:03:52.399Z,7.32
2023-08-15T21:06:20.516Z,6.15
2023-08-15T21:08:48.723Z,6.53
2023-08-15T21:11:23.550Z,5.38
2023-08-15T21:13:52.727Z,4.38
2023-08-15T21:16:20.564Z,3.97
2023-08-15T21:18:55.490Z,3.95
2023-08-15T21:21:23.386Z,3.25
2023-08-15T21:24:04.391Z,3.65
2023-08-15T21:26:32.192Z,3.33
2023-08-15T21:29:01.475Z,3.30
2023-08-15T21:31:37.518Z,3.50
2023-08-15T21:34:05.558Z,3.60
2023-08-15T21:36:33.358Z,4.40
2023-08-15T21:39:08.545Z,3.70
2023-08-15T21:41:36.372Z,4.40
2023-08-15T21:44:05.808Z,4.60
2023-08-15T21:46:40.564Z,4.00
2023-08-15T21:49:08.438Z,3.78
2023-08-15T21:51:36.286Z,3.67
2023-08-15T21:54:11.510Z,3.65
2023-08-15T21:56:52.445Z,3.15
2023-08-15T21:59:29.375Z,3.15
2023-08-15T22:01:57.286Z,3.33
2023-08-15T22:04:25.198Z,2.95
2023-08-15T22:06:59.408Z,2.60
2023-08-15T22:09:27.286Z,2.50
2023-08-15T22:11:55.094Z,2.55
2023-08-15T22:14:30.604Z,2.58
2023-08-15T22:16:58.399Z,2.47
2023-08-15T22:19:26.348Z,2.50
2023-08-15T22:22:00.505Z,2.60
2023-08-15T22:24:28.452Z,2.42
2023-08-15T22:26:56.262Z,2.10
2023-08-15T22:29:32.431Z,2.97
2023-08-15T22:32:00.251Z,2.55
2023-08-15T22:34:28.059Z,2.42
2023-08-15T22:37:02.700Z,2.35
2023-08-15T22:39:30.520Z,2.60
2023-08-15T22:41:58.328Z,2.38
2023-08-15T22:44:34.438Z,2.55
2023-08-15T22:47:02.228Z,2.47
2023-08-15T22:49:30.177Z,2.78
2023-08-15T22:52:04.503Z,2.55
2023-08-15T22:54:32.418Z,2.75
2023-08-15T22:57:13.426Z,2.40
2023-08-15T22:59:42.568Z,2.80
2023-08-15T23:02:10.392Z,2.28
2023-08-15T23:04:44.441Z,2.20
2023-08-15T23:07:12.222Z,2.05
2023-08-15T23:09:40.180Z,2.85
2023-08-15T23:12:15.426Z,2.00
2023-08-15T23:14:44.634Z,2.67
2023-08-15T23:17:12.418Z,3.00
2023-08-15T23:19:46.643Z,4.20
2023-08-15T23:22:14.457Z,4.13
2023-08-15T23:24:42.254Z,5.03
2023-08-15T23:27:16.550Z,5.90
2023-08-15T23:29:46.552Z,6.90
2023-08-15T23:32:14.660Z,5.07
2023-08-15T23:34:49.413Z,6.20
2023-08-15T23:37:17.547Z,5.30
2023-08-15T23:39:45.882Z,4.88
2023-08-15T23:42:20.549Z,5.80
2023-08-15T23:44:49.658Z,5.40
2023-08-15T23:47:18.251Z,4.57
2023-08-15T23:49:53.440Z,4.25
2023-08-15T23:52:21.778Z,4.60
2023-08-15T23:54:49.782Z,4.18
2023-08-15T23:57:24.873Z,4.13
